createdAt,value
2023-02-06T16:53:34.748Z,60.70
2023-02-06T16:57:45.077Z,40.90
2023-02-06T17:02:31.016Z,25.30
2023-02-06T17:16:07.584Z,18.60
2023-02-06T17:20:38.915Z,16.50
2023-02-06T17:24:42.552Z,16.00
2023-02-06T17:28:46.460Z,29.20
2023-02-06T17:33:53.332Z,32.50
2023-02-06T17:37:56.419Z,22.30
2023-02-06T17:42:03.684Z,20.60
2023-02-06T17:46:07.535Z,29.80
2023-02-06T17:50:39.159Z,36.90
2023-02-06T17:54:42.915Z,38.70
2023-02-06T17:58:52.209Z,28.20
2023-02-06T18:02:58.110Z,19.70
2023-02-06T18:08:06.717Z,37.70
2023-02-06T18:12:09.907Z,38.60
2023-02-06T18:17:28.324Z,40.50
2023-02-06T18:21:36.869Z,28.80
2023-02-06T18:25:43.438Z,21.40
2023-02-06T18:29:50.224Z,27.10
2023-02-06T18:37:57.473Z,28.70
2023-02-06T18:42:22.358Z,25.60
2023-02-06T18:46:25.522Z,28.10
2023-02-06T18:50:39.499Z,53.70
2023-02-06T18:54:42.715Z,34.60
2023-02-06T18:58:50.965Z,25.60
2023-02-06T19:02:54.679Z,22.30
2023-02-06T19:06:57.731Z,24.80
2023-02-06T19:11:00.738Z,28.30
2023-02-06T19:15:04.945Z,25.50
2023-02-06T19:19:07.977Z,25.60
2023-02-06T19:23:11.008Z,32.70
2023-02-06T19:27:17.455Z,25.50
2023-02-06T19:31:24.115Z,22.00
2023-02-06T19:35:28.499Z,23.30
2023-02-06T19:45:35.231Z,38.00
2023-02-06T19:49:38.951Z,23.00
2023-02-06T19:59:27.090Z,38.70
2023-02-06T20:04:03.543Z,51.90
2023-02-06T20:08:06.553Z,39.30
2023-02-06T20:12:15.327Z,27.40
2023-02-06T20:16:21.453Z,28.50
2023-02-06T20:20:25.083Z,29.20
2023-02-06T20:24:32.602Z,26.00
2023-02-06T20:28:57.729Z,23.60
2023-02-06T20:33:00.725Z,23.70
2023-02-06T20:37:18.653Z,22.40
2023-02-06T20:45:34.356Z,32.30
2023-02-06T20:49:37.739Z,26.10
2023-02-06T20:54:07.136Z,29.80
2023-02-06T20:58:11.154Z,30.20
2023-02-06T21:02:51.431Z,30.00
2023-02-06T21:06:56.548Z,30.90
2023-02-06T21:10:59.659Z,28.70
2023-02-06T21:15:15.256Z,27.40
2023-02-06T21:19:46.639Z,23.70
2023-02-06T21:23:49.778Z,40.50
2023-02-06T21:27:54.042Z,42.70
2023-02-06T21:32:12.196Z,70.00
2023-02-06T21:36:16.539Z,92.60
2023-02-06T21:41:00.815Z,66.90
2023-02-06T21:45:04.433Z,54.00
2023-02-06T21:54:55.877Z,79.50
2023-02-06T21:58:58.977Z,87.40
2023-02-06T22:04:00.066Z,77.30
2023-02-06T22:08:03.707Z,73.80
2023-02-06T22:12:07.617Z,100.60
2023-02-06T22:16:12.969Z,81.60
2023-02-06T22:20:16.463Z,90.20
2023-02-06T22:24:20.124Z,92.00
2023-02-06T22:28:31.732Z,94.00
2023-02-06T22:32:38.723Z,86.20
2023-02-06T22:36:44.072Z,72.50
2023-02-06T22:40:47.887Z,89.80
2023-02-06T22:44:52.164Z,110.10
2023-02-06T22:48:56.755Z,92.60
2023-02-06T22:53:18.616Z,102.10
2023-02-06T22:57:22.244Z,87.60
2023-02-06T23:01:30.770Z,70.30
2023-02-06T23:05:36.087Z,64.10
2023-02-06T23:09:40.817Z,42.70
2023-02-06T23:13:44.434Z,53.50
2023-02-06T23:17:49.788Z,50.30
2023-02-06T23:21:53.223Z,41.50
2023-02-06T23:25:59.186Z,51.10
2023-02-06T23:30:02.891Z,52.00
2023-02-06T23:34:06.515Z,51.60
2023-02-06T23:38:11.395Z,51.20
2023-02-06T23:42:14.982Z,48.20
2023-02-06T23:46:20.326Z,53.80
2023-02-06T23:50:25.129Z,52.00
2023-02-06T23:54:28.715Z,48.80
2023-02-06T23:58:32.550Z,48.70
